sensor_id;sensor_type;location;lat;lon;timestamp;pressure;altitude;pressure_sealevel;temperature;humidity
30516;BME280;17297;54.022;10.760;2023-05-10T00:00:54;100962.06;;;16.15;41.04
30516;BME280;17297;54.022;10.760;2023-05-10T00:03:20;100969.38;;;16.15;41.13
30516;BME280;17297;54.022;10.760;2023-05-10T00:05:45;100961.44;;;16.13;41.08
30516;BME280;17297;54.022;10.760;2023-05-10T00:08:10;100964.16;;;16.13;41.03
30516;BME280;17297;54.022;10.760;2023-05-10T00:10:36;100969.56;;;16.13;41.06
30516;BME280;17297;54.022;10.760;2023-05-10T00:13:02;100967.94;;;16.12;41.29
30516;BME280;17297;54.022;10.760;2023-05-10T00:15:28;100965.44;;;16.11;41.20
30516;BME280;17297;54.022;10.760;2023-05-10T00:17:53;100955.88;;;16.08;41.21
30516;BME280;17297;54.022;10.760;2023-05-10T00:20:18;100948.56;;;16.09;41.23
30516;BME280;17297;54.022;10.760;2023-05-10T00:22:43;100947.72;;;16.08;41.23
30516;BME280;17297;54.022;10.760;2023-05-10T00:25:09;100942.75;;;16.05;41.48
30516;BME280;17297;54.022;10.760;2023-05-10T00:27:35;100938.34;;;16.04;41.39
30516;BME280;17297;54.022;10.760;2023-05-10T00:30:01;100944.03;;;16.03;41.41
30516;BME280;17297;54.022;10.760;2023-05-10T00:32:26;100933.16;;;16.03;41.40
30516;BME280;17297;54.022;10.760;2023-05-10T00:34:51;100937.16;;;16.00;41.45
30516;BME280;17297;54.022;10.760;2023-05-10T00:37:17;100929.00;;;16.00;41.50
30516;BME280;17297;54.022;10.760;2023-05-10T00:39:42;100930.28;;;15.98;41.45
30516;BME280;17297;54.022;10.760;2023-05-10T00:42:07;100921.31;;;15.97;41.56
30516;BME280;17297;54.022;10.760;2023-05-10T00:44:33;100924.28;;;15.96;41.46
30516;BME280;17297;54.022;10.760;2023-05-10T00:46:59;100923.44;;;15.95;41.64
30516;BME280;17297;54.022;10.760;2023-05-10T00:49:24;100915.75;;;15.92;41.71
30516;BME280;17297;54.022;10.760;2023-05-10T00:51:50;100918.47;;;15.92;41.84
30516;BME280;17297;54.022;10.760;2023-05-10T00:54:16;100917.63;;;15.91;41.92
30516;BME280;17297;54.022;10.760;2023-05-10T00:56:41;100915.34;;;15.88;41.88
30516;BME280;17297;54.022;10.760;2023-05-10T00:59:11;100904.94;;;15.85;41.91
30516;BME280;17297;54.022;10.760;2023-05-10T01:01:37;100915.22;;;15.83;42.00
30516;BME280;17297;54.022;10.760;2023-05-10T01:04:03;100914.38;;;15.83;42.00
30516;BME280;17297;54.022;10.760;2023-05-10T01:06:28;100910.22;;;15.80;41.94
30516;BME280;17297;54.022;10.760;2023-05-10T01:08:54;100905.03;;;15.79;42.03
30516;BME280;17297;54.022;10.760;2023-05-10T01:11:21;100909.63;;;15.78;42.28
30516;BME280;17297;54.022;10.760;2023-05-10T01:13:52;100913.41;;;15.77;42.37
30516;BME280;17297;54.022;10.760;2023-05-10T01:16:20;100906.28;;;15.76;42.35
30516;BME280;17297;54.022;10.760;2023-05-10T01:18:46;100904.03;;;15.73;42.48
30516;BME280;17297;54.022;10.760;2023-05-10T01:21:32;100905.31;;;15.70;42.45
30516;BME280;17297;54.022;10.760;2023-05-10T01:27:01;100899.31;;;15.62;42.64
30516;BME280;17297;54.022;10.760;2023-05-10T01:29:53;100898.94;;;15.58;42.68
30516;BME280;17297;54.022;10.760;2023-05-10T01:35:15;100902.53;;;15.52;42.95
30516;BME280;17297;54.022;10.760;2023-05-10T01:37:46;100902.97;;;15.49;43.24
30516;BME280;17297;54.022;10.760;2023-05-10T01:40:26;100897.19;;;15.45;43.14
30516;BME280;17297;54.022;10.760;2023-05-10T01:43:00;100893.22;;;15.41;43.37
30516;BME280;17297;54.022;10.760;2023-05-10T01:46:20;100889.69;;;15.41;43.69
30516;BME280;17297;54.022;10.760;2023-05-10T01:48:52;100893.66;;;15.38;44.01
30516;BME280;17297;54.022;10.760;2023-05-10T01:51:33;100889.75;;;15.34;44.76
30516;BME280;17297;54.022;10.760;2023-05-10T01:54:01;100891.44;;;15.29;45.38
30516;BME280;17297;54.022;10.760;2023-05-10T01:56:29;100891.50;;;15.22;46.20
30516;BME280;17297;54.022;10.760;2023-05-10T01:58:56;100893.66;;;15.13;46.44
30516;BME280;17297;54.022;10.760;2023-05-10T02:01:22;100889.34;;;15.06;46.55
30516;BME280;17297;54.022;10.760;2023-05-10T02:03:50;100885.84;;;14.98;46.79
30516;BME280;17297;54.022;10.760;2023-05-10T02:06:18;100892.97;;;14.93;47.07
30516;BME280;17297;54.022;10.760;2023-05-10T02:08:45;100884.47;;;14.89;47.46
30516;BME280;17297;54.022;10.760;2023-05-10T02:11:13;100889.69;;;14.84;47.56
30516;BME280;17297;54.022;10.760;2023-05-10T02:13:39;100889.28;;;14.81;47.83
30516;BME280;17297;54.022;10.760;2023-05-10T02:16:06;100890.56;;;14.78;47.64
30516;BME280;17297;54.022;10.760;2023-05-10T02:18:32;100885.56;;;14.75;47.66
30516;BME280;17297;54.022;10.760;2023-05-10T02:20:59;100882.03;;;14.74;47.63
30516;BME280;17297;54.022;10.760;2023-05-10T02:23:25;100886.41;;;14.75;47.56
30516;BME280;17297;54.022;10.760;2023-05-10T02:25:52;100888.91;;;14.77;47.49
30516;BME280;17297;54.022;10.760;2023-05-10T02:28:21;100887.03;;;14.77;47.02
30516;BME280;17297;54.022;10.760;2023-05-10T02:30:48;100880.34;;;14.80;46.75
30516;BME280;17297;54.022;10.760;2023-05-10T02:33:16;100886.16;;;14.84;46.48
30516;BME280;17297;54.022;10.760;2023-05-10T02:35:45;100882.19;;;14.86;46.21
30516;BME280;17297;54.022;10.760;2023-05-10T02:38:13;100880.06;;;14.88;46.21
30516;BME280;17297;54.022;10.760;2023-05-10T02:40:40;100882.56;;;14.90;46.08
30516;BME280;17297;54.022;10.760;2023-05-10T02:43:09;100877.16;;;14.90;45.95
30516;BME280;17297;54.022;10.760;2023-05-10T02:45:38;100874.22;;;14.91;46.14
30516;BME280;17297;54.022;10.760;2023-05-10T02:48:04;100886.72;;;14.92;46.08
30516;BME280;17297;54.022;10.760;2023-05-10T02:50:32;100877.75;;;14.92;46.29
30516;BME280;17297;54.022;10.760;2023-05-10T02:53:06;100872.75;;;14.89;46.08
30516;BME280;17297;54.022;10.760;2023-05-10T02:55:37;100880.88;;;14.89;46.08
30516;BME280;17297;54.022;10.760;2023-05-10T02:58:04;100877.59;;;14.87;46.12
30516;BME280;17297;54.022;10.760;2023-05-10T03:00:31;100873.19;;;14.86;46.13
30516;BME280;17297;54.022;10.760;2023-05-10T03:02:56;100881.13;;;14.87;45.98
30516;BME280;17297;54.022;10.760;2023-05-10T03:05:22;100886.53;;;14.87;45.94
30516;BME280;17297;54.022;10.760;2023-05-10T03:07:48;100888.00;;;14.90;45.76
30516;BME280;17297;54.022;10.760;2023-05-10T03:10:13;100892.34;;;14.91;45.90
30516;BME280;17297;54.022;10.760;2023-05-10T03:12:58;100881.31;;;14.92;45.92
30516;BME280;17297;54.022;10.760;2023-05-10T03:15:44;100881.50;;;14.91;45.66
30516;BME280;17297;54.022;10.760;2023-05-10T03:18:18;100889.63;;;14.91;45.67
30516;BME280;17297;54.022;10.760;2023-05-10T03:20:47;100888.00;;;14.90;45.76
30516;BME280;17297;54.022;10.760;2023-05-10T03:23:30;100885.72;;;14.87;45.94
30516;BME280;17297;54.022;10.760;2023-05-10T03:25:57;100886.16;;;14.84;45.95
30516;BME280;17297;54.022;10.760;2023-05-10T03:28:25;100883.88;;;14.81;45.92
30516;BME280;17297;54.022;10.760;2023-05-10T03:30:52;100891.59;;;14.77;46.20
30516;BME280;17297;54.022;10.760;2023-05-10T03:33:17;100893.06;;;14.73;46.25
30516;BME280;17297;54.022;10.760;2023-05-10T03:35:45;100888.94;;;14.70;46.33
30516;BME280;17297;54.022;10.760;2023-05-10T03:38:12;100893.50;;;14.70;46.54
30516;BME280;17297;54.022;10.760;2023-05-10T03:40:37;100893.50;;;14.70;46.56
30516;BME280;17297;54.022;10.760;2023-05-10T03:43:02;100893.50;;;14.70;46.58
30516;BME280;17297;54.022;10.760;2023-05-10T03:45:28;100893.50;;;14.70;46.77
30516;BME280;17297;54.022;10.760;2023-05-10T03:47:53;100889.97;;;14.69;46.97
30516;BME280;17297;54.022;10.760;2023-05-10T03:50:20;100888.09;;;14.70;46.85
30516;BME280;17297;54.022;10.760;2023-05-10T03:52:45;100890.78;;;14.70;46.98
30516;BME280;17297;54.022;10.760;2023-05-10T03:55:11;100889.97;;;14.69;47.20
30516;BME280;17297;54.022;10.760;2023-05-10T03:57:37;100882.91;;;14.68;47.22
30516;BME280;17297;54.022;10.760;2023-05-10T04:00:05;100879.38;;;14.68;47.34
30516;BME280;17297;54.022;10.760;2023-05-10T04:02:39;100877.50;;;14.68;47.31
30516;BME280;17297;54.022;10.760;2023-05-10T04:05:05;100880.81;;;14.70;47.58
30516;BME280;17297;54.022;10.760;2023-05-10T04:07:30;100879.75;;;14.71;47.76
30516;BME280;17297;54.022;10.760;2023-05-10T04:09:55;100869.75;;;14.72;47.86
30516;BME280;17297;54.022;10.760;2023-05-10T04:12:21;100872.47;;;14.72;47.97
30516;BME280;17297;54.022;10.760;2023-05-10T04:14:47;100867.69;;;14.74;47.93
30516;BME280;17297;54.022;10.760;2023-05-10T04:17:12;100870.38;;;14.74;48.32
30516;BME280;17297;54.022;10.760;2023-05-10T04:19:37;100864.97;;;14.74;48.53
30516;BME280;17297;54.022;10.760;2023-05-10T04:22:03;100865.78;;;14.74;48.74
30516;BME280;17297;54.022;10.760;2023-05-10T04:24:29;100867.69;;;14.74;48.87
30516;BME280;17297;54.022;10.760;2023-05-10T04:26:54;100860.56;;;14.73;48.88
30516;BME280;17297;54.022;10.760;2023-05-10T04:29:20;100866.00;;;14.73;49.02
30516;BME280;17297;54.022;10.760;2023-05-10T04:31:46;100863.28;;;14.73;49.08
30516;BME280;17297;54.022;10.760;2023-05-10T04:34:11;100863.09;;;14.74;49.07
30516;BME280;17297;54.022;10.760;2023-05-10T04:36:36;100863.69;;;14.76;49.23
30516;BME280;17297;54.022;10.760;2023-05-10T04:39:02;100858.88;;;14.78;49.09
30516;BME280;17297;54.022;10.760;2023-05-10T04:41:28;100859.06;;;14.84;49.26
30516;BME280;17297;54.022;10.760;2023-05-10T04:43:53;100863.63;;;14.90;49.13
30516;BME280;17297;54.022;10.760;2023-05-10T04:46:19;100871.69;;;14.96;49.00
30516;BME280;17297;54.022;10.760;2023-05-10T04:48:44;100864.13;;;15.05;48.99
30516;BME280;17297;54.022;10.760;2023-05-10T04:51:09;100866.56;;;15.13;48.86
30516;BME280;17297;54.022;10.760;2023-05-10T04:53:35;100859.81;;;15.22;48.82
30516;BME280;17297;54.022;10.760;2023-05-10T04:56:00;100862.66;;;15.34;48.85
30516;BME280;17297;54.022;10.760;2023-05-10T04:58:26;100860.81;;;15.53;48.94
30516;BME280;17297;54.022;10.760;2023-05-10T05:00:51;100861.94;;;15.70;48.63
30516;BME280;17297;54.022;10.760;2023-05-10T05:03:17;100853.38;;;15.92;48.11
30516;BME280;17297;54.022;10.760;2023-05-10T05:05:43;100859.28;;;16.19;47.70
30516;BME280;17297;54.022;10.760;2023-05-10T05:08:08;100873.75;;;16.50;47.50
30516;BME280;17297;54.022;10.760;2023-05-10T05:10:34;100875.22;;;16.82;46.91
30516;BME280;17297;54.022;10.760;2023-05-10T05:13:00;100870.06;;;17.16;46.61
30516;BME280;17297;54.022;10.760;2023-05-10T05:15:25;100867.16;;;17.53;46.15
30516;BME280;17297;54.022;10.760;2023-05-10T05:17:50;100863.19;;;17.79;45.03
30516;BME280;17297;54.022;10.760;2023-05-10T05:20:16;100868.03;;;17.89;44.76
30516;BME280;17297;54.022;10.760;2023-05-10T05:22:41;100869.34;;;17.86;44.66
30516;BME280;17297;54.022;10.760;2023-05-10T05:25:06;100862.34;;;17.90;44.79
30516;BME280;17297;54.022;10.760;2023-05-10T05:27:32;100863.50;;;18.06;44.79
30516;BME280;17297;54.022;10.760;2023-05-10T05:29:58;100861.69;;;18.23;44.43
30516;BME280;17297;54.022;10.760;2023-05-10T05:32:24;100860.31;;;18.38;43.74
30516;BME280;17297;54.022;10.760;2023-05-10T05:34:50;100860.69;;;18.41;43.70
30516;BME280;17297;54.022;10.760;2023-05-10T05:37:16;100858.47;;;18.38;43.80
30516;BME280;17297;54.022;10.760;2023-05-10T05:39:42;100858.16;;;18.23;43.52
30516;BME280;17297;54.022;10.760;2023-05-10T05:42:09;100853.56;;;18.00;43.67
30516;BME280;17297;54.022;10.760;2023-05-10T05:44:34;100872.28;;;17.85;43.75
30516;BME280;17297;54.022;10.760;2023-05-10T05:46:59;100864.25;;;17.66;43.68
30516;BME280;17297;54.022;10.760;2023-05-10T05:49:25;100863.50;;;17.47;44.25
30516;BME280;17297;54.022;10.760;2023-05-10T05:51:50;100866.91;;;17.31;44.65
30516;BME280;17297;54.022;10.760;2023-05-10T05:54:16;100858.38;;;17.16;44.70
30516;BME280;17297;54.022;10.760;2023-05-10T05:56:41;100862.75;;;17.05;44.63
30516;BME280;17297;54.022;10.760;2023-05-10T05:59:06;100860.00;;;16.93;44.65
30516;BME280;17297;54.022;10.760;2023-05-10T06:01:32;100861.63;;;16.82;45.27
30516;BME280;17297;54.022;10.760;2023-05-10T06:03:57;100863.44;;;16.70;45.23
30516;BME280;17297;54.022;10.760;2023-05-10T06:06:22;100859.16;;;16.62;45.60
30516;BME280;17297;54.022;10.760;2023-05-10T06:08:48;100856.31;;;16.57;45.70
30516;BME280;17297;54.022;10.760;2023-05-10T06:11:13;100863.03;;;16.55;45.98
30516;BME280;17297;54.022;10.760;2023-05-10T06:13:38;100855.72;;;16.55;46.22
30516;BME280;17297;54.022;10.760;2023-05-10T06:16:04;100853.59;;;16.57;46.00
30516;BME280;17297;54.022;10.760;2023-05-10T06:18:29;100856.78;;;16.66;45.81
30516;BME280;17297;54.022;10.760;2023-05-10T06:20:55;100856.47;;;16.74;46.08
30516;BME280;17297;54.022;10.760;2023-05-10T06:23:20;100855.94;;;16.84;46.11
30516;BME280;17297;54.022;10.760;2023-05-10T06:25:45;100852.09;;;16.92;46.14
30516;BME280;17297;54.022;10.760;2023-05-10T06:28:11;100856.13;;;17.01;45.81
30516;BME280;17297;54.022;10.760;2023-05-10T06:30:36;100854.25;;;17.13;45.91
30516;BME280;17297;54.022;10.760;2023-05-10T06:33:02;100857.59;;;17.27;45.72
30516;BME280;17297;54.022;10.760;2023-05-10T06:35:28;100847.78;;;17.38;45.90
30516;BME280;17297;54.022;10.760;2023-05-10T06:37:54;100854.31;;;17.60;45.38
30516;BME280;17297;54.022;10.760;2023-05-10T06:40:20;100855.38;;;17.94;45.24
30516;BME280;17297;54.022;10.760;2023-05-10T06:42:46;100849.00;;;18.29;44.54
30516;BME280;17297;54.022;10.760;2023-05-10T06:45:13;100853.88;;;18.56;44.32
30516;BME280;17297;54.022;10.760;2023-05-10T06:47:38;100849.41;;;18.78;43.72
30516;BME280;17297;54.022;10.760;2023-05-10T06:50:04;100845.16;;;18.99;43.31
30516;BME280;17297;54.022;10.760;2023-05-10T06:52:29;100856.75;;;19.23;43.11
30516;BME280;17297;54.022;10.760;2023-05-10T06:54:54;100846.81;;;19.51;42.91
30516;BME280;17297;54.022;10.760;2023-05-10T06:57:20;100855.47;;;19.81;42.72
30516;BME280;17297;54.022;10.760;2023-05-10T06:59:45;100849.06;;;20.15;42.11
30516;BME280;17297;54.022;10.760;2023-05-10T07:02:11;100842.25;;;20.39;41.75
30516;BME280;17297;54.022;10.760;2023-05-10T07:04:36;100849.06;;;20.59;41.10
30516;BME280;17297;54.022;10.760;2023-05-10T07:07:01;100853.25;;;20.66;41.07
30516;BME280;17297;54.022;10.760;2023-05-10T07:09:27;100853.47;;;20.60;40.56
30516;BME280;17297;54.022;10.760;2023-05-10T07:11:52;100839.22;;;20.36;40.90
30516;BME280;17297;54.022;10.760;2023-05-10T07:14:17;100846.81;;;20.06;41.15
30516;BME280;17297;54.022;10.760;2023-05-10T07:16:43;100846.94;;;19.78;41.89
30516;BME280;17297;54.022;10.760;2023-05-10T07:19:09;100840.78;;;19.49;42.22
30516;BME280;17297;54.022;10.760;2023-05-10T07:21:34;100849.97;;;19.26;42.70
30516;BME280;17297;54.022;10.760;2023-05-10T07:24:00;100843.34;;;19.05;42.72
30516;BME280;17297;54.022;10.760;2023-05-10T07:26:26;100838.38;;;18.85;42.96
30516;BME280;17297;54.022;10.760;2023-05-10T07:28:51;100844.09;;;18.72;43.42
30516;BME280;17297;54.022;10.760;2023-05-10T07:31:16;100848.19;;;18.57;43.98
30516;BME280;17297;54.022;10.760;2023-05-10T07:33:42;100845.50;;;18.45;44.23
30516;BME280;17297;54.022;10.760;2023-05-10T07:36:07;100846.16;;;18.36;44.33
30516;BME280;17297;54.022;10.760;2023-05-10T07:38:32;100849.56;;;18.31;44.66
30516;BME280;17297;54.022;10.760;2023-05-10T07:40:58;100856.59;;;18.27;44.69
30516;BME280;17297;54.022;10.760;2023-05-10T07:43:23;100844.03;;;18.26;45.17
30516;BME280;17297;54.022;10.760;2023-05-10T07:45:50;100843.31;;;18.31;45.58
30516;BME280;17297;54.022;10.760;2023-05-10T07:48:15;100846.97;;;18.36;44.89
30516;BME280;17297;54.022;10.760;2023-05-10T07:50:41;100843.75;;;18.39;44.29
30516;BME280;17297;54.022;10.760;2023-05-10T07:53:06;100842.69;;;18.40;44.17
30516;BME280;17297;54.022;10.760;2023-05-10T07:55:31;100846.47;;;18.39;44.11
30516;BME280;17297;54.022;10.760;2023-05-10T07:57:57;100853.84;;;18.39;44.07
30516;BME280;17297;54.022;10.760;2023-05-10T08:00:22;100853.34;;;18.42;44.27
30516;BME280;17297;54.022;10.760;2023-05-10T08:02:47;100845.75;;;18.44;44.34
30516;BME280;17297;54.022;10.760;2023-05-10T08:05:13;100854.16;;;18.42;44.55
30516;BME280;17297;54.022;10.760;2023-05-10T08:07:39;100859.34;;;18.44;44.88
30516;BME280;17297;54.022;10.760;2023-05-10T08:10:05;100857.81;;;18.48;44.72
30516;BME280;17297;54.022;10.760;2023-05-10T08:12:30;100862.53;;;18.53;44.67
30516;BME280;17297;54.022;10.760;2023-05-10T08:14:56;100865.09;;;18.59;44.87
30516;BME280;17297;54.022;10.760;2023-05-10T08:17:21;100867.69;;;18.66;44.69
30516;BME280;17297;54.022;10.760;2023-05-10T08:19:46;100858.78;;;18.70;44.45
30516;BME280;17297;54.022;10.760;2023-05-10T08:22:12;100860.25;;;18.73;44.56
30516;BME280;17297;54.022;10.760;2023-05-10T08:24:39;100868.41;;;18.73;44.55
30516;BME280;17297;54.022;10.760;2023-05-10T08:27:05;100870.50;;;18.71;44.59
30516;BME280;17297;54.022;10.760;2023-05-10T08:29:30;100866.69;;;18.72;44.68
30516;BME280;17297;54.022;10.760;2023-05-10T08:31:56;100860.56;;;18.77;44.39
30516;BME280;17297;54.022;10.760;2023-05-10T08:34:21;100870.50;;;18.83;43.58
30516;BME280;17297;54.022;10.760;2023-05-10T08:36:47;100865.22;;;18.93;43.61
30516;BME280;17297;54.022;10.760;2023-05-10T08:39:13;100868.59;;;19.00;43.71
30516;BME280;17297;54.022;10.760;2023-05-10T08:41:39;100863.56;;;19.09;43.90
30516;BME280;17297;54.022;10.760;2023-05-10T08:44:04;100868.38;;;19.19;43.77
30516;BME280;17297;54.022;10.760;2023-05-10T08:46:33;100856.47;;;19.25;43.86
30516;BME280;17297;54.022;10.760;2023-05-10T08:49:02;100862.03;;;19.30;44.03
30516;BME280;17297;54.022;10.760;2023-05-10T08:51:31;100867.81;;;19.33;43.89
30516;BME280;17297;54.022;10.760;2023-05-10T08:54:00;100860.13;;;19.30;43.87
30516;BME280;17297;54.022;10.760;2023-05-10T08:56:26;100861.44;;;19.28;43.96
30516;BME280;17297;54.022;10.760;2023-05-10T08:58:51;100861.94;;;19.25;44.46
30516;BME280;17297;54.022;10.760;2023-05-10T09:01:18;100858.38;;;19.24;44.37
30516;BME280;17297;54.022;10.760;2023-05-10T09:03:46;100859.78;;;19.27;44.53
30516;BME280;17297;54.022;10.760;2023-05-10T09:06:12;100853.25;;;19.28;44.42
30516;BME280;17297;54.022;10.760;2023-05-10T09:08:38;100853.75;;;19.25;44.80
30516;BME280;17297;54.022;10.760;2023-05-10T09:11:05;100860.28;;;19.24;44.95
30516;BME280;17297;54.022;10.760;2023-05-10T09:13:30;100868.72;;;19.22;44.93
30516;BME280;17297;54.022;10.760;2023-05-10T09:15:56;100862.09;;;19.18;45.18
30516;BME280;17297;54.022;10.760;2023-05-10T09:18:22;100869.22;;;19.19;45.25
30516;BME280;17297;54.022;10.760;2023-05-10T09:20:48;100864.34;;;19.21;44.56
30516;BME280;17297;54.022;10.760;2023-05-10T09:23:14;100872.28;;;19.23;44.89
30516;BME280;17297;54.022;10.760;2023-05-10T09:25:41;100878.28;;;19.25;45.06
30516;BME280;17297;54.022;10.760;2023-05-10T09:28:07;100880.19;;;19.24;44.69
30516;BME280;17297;54.022;10.760;2023-05-10T09:30:36;100875.00;;;19.23;44.92
30516;BME280;17297;54.022;10.760;2023-05-10T09:33:01;100876.91;;;19.22;44.98
30516;BME280;17297;54.022;10.760;2023-05-10T09:35:29;100876.91;;;19.22;44.78
30516;BME280;17297;54.022;10.760;2023-05-10T09:37:56;100882.94;;;19.24;44.92
30516;BME280;17297;54.022;10.760;2023-05-10T09:40:23;100876.47;;;19.30;43.97
30516;BME280;17297;54.022;10.760;2023-05-10T09:43:03;100882.69;;;19.43;44.37
30516;BME280;17297;54.022;10.760;2023-05-10T09:45:30;100880.59;;;19.50;44.20
30516;BME280;17297;54.022;10.760;2023-05-10T09:47:56;100888.66;;;19.56;44.10
30516;BME280;17297;54.022;10.760;2023-05-10T09:50:22;100885.28;;;19.66;43.84
30516;BME280;17297;54.022;10.760;2023-05-10T09:52:56;100879.13;;;19.76;43.56
30516;BME280;17297;54.022;10.760;2023-05-10T09:55:41;100880.59;;;19.83;43.94
30516;BME280;17297;54.022;10.760;2023-05-10T09:58:09;100880.91;;;19.87;43.69
30516;BME280;17297;54.022;10.760;2023-05-10T10:00:36;100882.59;;;19.88;43.87
30516;BME280;17297;54.022;10.760;2023-05-10T10:03:03;100887.22;;;19.88;43.95
30516;BME280;17297;54.022;10.760;2023-05-10T10:05:40;100877.13;;;19.88;44.20
30516;BME280;17297;54.022;10.760;2023-05-10T10:08:05;100888.88;;;19.89;44.39
30516;BME280;17297;54.022;10.760;2023-05-10T10:10:32;100885.31;;;19.88;44.34
30516;BME280;17297;54.022;10.760;2023-05-10T10:12:58;100884.00;;;19.91;44.30
30516;BME280;17297;54.022;10.760;2023-05-10T10:15:24;100888.97;;;19.94;44.33
30516;BME280;17297;54.022;10.760;2023-05-10T10:17:50;100888.69;;;19.95;43.90
30516;BME280;17297;54.022;10.760;2023-05-10T10:20:17;100887.09;;;19.99;43.63
30516;BME280;17297;54.022;10.760;2023-05-10T10:22:42;100880.06;;;20.03;44.08
30516;BME280;17297;54.022;10.760;2023-05-10T10:25:12;100887.00;;;20.11;43.64
30516;BME280;17297;54.022;10.760;2023-05-10T10:35:54;100882.66;;;20.15;43.97
30516;BME280;17297;54.022;10.760;2023-05-10T10:38:20;100883.94;;;20.07;43.71
30516;BME280;17297;54.022;10.760;2023-05-10T10:40:45;100889.41;;;20.07;44.20
30516;BME280;17297;54.022;10.760;2023-05-10T10:43:27;100874.66;;;20.08;44.62
30516;BME280;17297;54.022;10.760;2023-05-10T10:48:50;100890.75;;;20.27;44.06
30516;BME280;17297;54.022;10.760;2023-05-10T10:51:37;100880.72;;;20.33;44.18
30516;BME280;17297;54.022;10.760;2023-05-10T10:54:11;100881.34;;;20.40;43.82
30516;BME280;17297;54.022;10.760;2023-05-10T10:56:37;100891.25;;;20.46;44.40
30516;BME280;17297;54.022;10.760;2023-05-10T10:59:02;100889.09;;;20.48;43.89
30516;BME280;17297;54.022;10.760;2023-05-10T11:01:33;100885.84;;;20.51;44.61
30516;BME280;17297;54.022;10.760;2023-05-10T11:06:29;100882.44;;;20.61;44.10
30516;BME280;17297;54.022;10.760;2023-05-10T11:08:57;100888.88;;;20.76;43.61
30516;BME280;17297;54.022;10.760;2023-05-10T11:11:23;100890.69;;;20.93;43.73
30516;BME280;17297;54.022;10.760;2023-05-10T11:13:48;100888.38;;;21.07;43.75
30516;BME280;17297;54.022;10.760;2023-05-10T11:16:18;100892.06;;;21.22;43.89
30516;BME280;17297;54.022;10.760;2023-05-10T11:18:56;100884.03;;;21.38;43.39
30516;BME280;17297;54.022;10.760;2023-05-10T11:21:22;100893.13;;;21.49;43.24
30516;BME280;17297;54.022;10.760;2023-05-10T11:23:48;100889.34;;;21.55;42.95
30516;BME280;17297;54.022;10.760;2023-05-10T11:26:16;100888.56;;;21.59;42.78
30516;BME280;17297;54.022;10.760;2023-05-10T11:28:45;100889.94;;;21.62;42.81
30516;BME280;17297;54.022;10.760;2023-05-10T11:31:14;100896.53;;;21.66;42.99
30516;BME280;17297;54.022;10.760;2023-05-10T11:33:44;100903.13;;;21.70;43.08
30516;BME280;17297;54.022;10.760;2023-05-10T11:36:27;100893.88;;;21.76;42.52
30516;BME280;17297;54.022;10.760;2023-05-10T11:38:53;100904.03;;;21.81;42.78
30516;BME280;17297;54.022;10.760;2023-05-10T11:41:19;100901.59;;;21.84;42.14
30516;BME280;17297;54.022;10.760;2023-05-10T11:43:52;100899.69;;;21.85;42.56
30516;BME280;17297;54.022;10.760;2023-05-10T11:46:20;100890.13;;;21.87;42.64
30516;BME280;17297;54.022;10.760;2023-05-10T11:48:46;100894.53;;;21.94;42.57
30516;BME280;17297;54.022;10.760;2023-05-10T11:51:12;100900.31;;;21.97;42.13
30516;BME280;17297;54.022;10.760;2023-05-10T11:53:38;100897.28;;;21.99;42.54
30516;BME280;17297;54.022;10.760;2023-05-10T11:56:05;100902.22;;;22.02;42.46
30516;BME280;17297;54.022;10.760;2023-05-10T11:58:31;100900.34;;;22.07;42.05
30516;BME280;17297;54.022;10.760;2023-05-10T12:00:58;100908.31;;;22.09;41.97
30516;BME280;17297;54.022;10.760;2023-05-10T12:03:24;100912.69;;;22.10;42.55
30516;BME280;17297;54.022;10.760;2023-05-10T12:05:51;100918.19;;;22.10;42.31
30516;BME280;17297;54.022;10.760;2023-05-10T12:08:21;100919.28;;;22.09;42.26
30516;BME280;17297;54.022;10.760;2023-05-10T12:10:47;100920.91;;;22.10;42.50
30516;BME280;17297;54.022;10.760;2023-05-10T12:13:14;100920.63;;;22.11;42.61
30516;BME280;17297;54.022;10.760;2023-05-10T12:15:40;100922.03;;;22.14;42.24
30516;BME280;17297;54.022;10.760;2023-05-10T12:18:08;100930.84;;;22.16;42.35
30516;BME280;17297;54.022;10.760;2023-05-10T12:20:35;100930.84;;;22.16;41.89
30516;BME280;17297;54.022;10.760;2023-05-10T12:23:02;100931.88;;;22.10;42.17
30516;BME280;17297;54.022;10.760;2023-05-10T12:25:33;100941.72;;;22.06;42.46
30516;BME280;17297;54.022;10.760;2023-05-10T12:28:00;100935.09;;;22.02;42.46
30516;BME280;17297;54.022;10.760;2023-05-10T12:30:30;100940.56;;;21.97;42.04
30516;BME280;17297;54.022;10.760;2023-05-10T12:33:07;100942.44;;;21.91;41.79
30516;BME280;17297;54.022;10.760;2023-05-10T12:35:33;100943.75;;;21.83;41.83
30516;BME280;17297;54.022;10.760;2023-05-10T12:37:59;100940.72;;;21.80;42.56
30516;BME280;17297;54.022;10.760;2023-05-10T12:40:24;100947.00;;;21.80;42.73
30516;BME280;17297;54.022;10.760;2023-05-10T12:42:50;100945.94;;;21.81;42.63
30516;BME280;17297;54.022;10.760;2023-05-10T12:45:17;100955.78;;;21.82;42.85
30516;BME280;17297;54.022;10.760;2023-05-10T12:47:43;100956.38;;;21.84;43.01
30516;BME280;17297;54.022;10.760;2023-05-10T12:50:08;100958.00;;;21.85;43.11
30516;BME280;17297;54.022;10.760;2023-05-10T12:52:34;100965.41;;;21.85;43.25
30516;BME280;17297;54.022;10.760;2023-05-10T12:54:59;100959.91;;;21.85;43.37
30516;BME280;17297;54.022;10.760;2023-05-10T12:57:25;100957.72;;;21.82;43.03
30516;BME280;17297;54.022;10.760;2023-05-10T12:59:53;100969.19;;;21.79;43.24